createdAt,value
2022-08-03T00:00:37.189Z,100.00
2022-08-03T00:03:05.611Z,100.00
2022-08-03T00:05:34.243Z,100.00
2022-08-03T00:08:03.179Z,100.00
2022-08-03T00:10:32.823Z,100.00
2022-08-03T00:13:01.108Z,100.00
2022-08-03T00:15:29.821Z,100.00
2022-08-03T00:17:59.492Z,100.00
2022-08-03T00:20:27.775Z,100.00
2022-08-03T00:22:56.028Z,100.00
2022-08-03T00:25:24.223Z,100.00
2022-08-03T00:27:52.572Z,100.00
2022-08-03T00:30:20.868Z,100.00
2022-08-03T00:32:49.966Z,100.00
2022-08-03T00:35:28.708Z,100.00
2022-08-03T00:38:05.531Z,100.00
2022-08-03T00:40:33.801Z,100.00
2022-08-03T00:43:02.777Z,100.00
2022-08-03T00:45:31.767Z,100.00
2022-08-03T00:48:00.698Z,100.00
2022-08-03T00:50:31.479Z,100.00
2022-08-03T00:53:00.481Z,100.00
2022-08-03T00:55:29.071Z,100.00
2022-08-03T00:57:57.486Z,100.00
2022-08-03T01:00:26.425Z,100.00
2022-08-03T01:02:54.905Z,100.00
2022-08-03T01:05:23.122Z,100.00
2022-08-03T01:08:03.302Z,100.00
2022-08-03T01:10:38.851Z,100.00
2022-08-03T01:13:59.164Z,100.00
2022-08-03T01:16:07.152Z,100.00
2022-08-03T01:18:39.255Z,100.00
2022-08-03T01:21:11.461Z,100.00
2022-08-03T01:24:00.463Z,100.00
2022-08-03T01:26:44.064Z,100.00
2022-08-03T01:29:31.331Z,100.00
2022-08-03T01:32:58.001Z,100.00
2022-08-03T01:34:53.187Z,100.00
2022-08-03T01:37:25.560Z,100.00
2022-08-03T01:39:53.993Z,100.00
2022-08-03T01:42:24.093Z,100.00
2022-08-03T01:44:54.190Z,100.00
2022-08-03T01:47:22.844Z,100.00
2022-08-03T01:49:51.183Z,100.00
2022-08-03T01:52:20.288Z,100.00
2022-08-03T01:54:51.125Z,100.00
2022-08-03T01:57:19.695Z,100.00
2022-08-03T01:59:48.778Z,100.00
2022-08-03T02:02:32.780Z,100.00
2022-08-03T02:05:02.610Z,100.00
2022-08-03T02:07:31.134Z,100.00
2022-08-03T02:09:59.412Z,100.00
2022-08-03T02:12:28.565Z,100.00
2022-08-03T02:14:57.745Z,100.00
2022-08-03T02:17:38.699Z,100.00
2022-08-03T02:20:09.140Z,100.00
2022-08-03T02:22:37.861Z,100.00
2022-08-03T02:25:06.496Z,100.00
2022-08-03T02:27:34.656Z,100.00
2022-08-03T02:30:05.035Z,100.00
2022-08-03T02:32:37.208Z,100.00
2022-08-03T02:35:06.303Z,100.00
2022-08-03T02:37:36.700Z,100.00
2022-08-03T02:40:12.180Z,100.00
2022-08-03T02:42:40.740Z,100.00
2022-08-03T02:45:12.579Z,100.00
2022-08-03T02:47:54.414Z,100.00
2022-08-03T02:50:24.124Z,100.00
2022-08-03T02:52:53.365Z,100.00
2022-08-03T02:55:21.809Z,100.00
2022-08-03T02:57:50.085Z,100.00
2022-08-03T03:00:19.672Z,100.00
2022-08-03T03:02:58.996Z,100.00
2022-08-03T03:05:53.267Z,100.00
2022-08-03T03:08:20.916Z,100.00
2022-08-03T03:10:55.623Z,100.00
2022-08-03T03:13:24.085Z,100.00
2022-08-03T03:15:52.827Z,100.00
2022-08-03T03:18:23.104Z,100.00
2022-08-03T03:20:51.685Z,100.00
2022-08-03T03:23:20.415Z,100.00
2022-08-03T03:25:48.700Z,100.00
2022-08-03T03:28:17.020Z,100.00
2022-08-03T03:30:52.766Z,100.00
2022-08-03T03:33:23.098Z,100.00
2022-08-03T03:35:51.798Z,100.00
2022-08-03T03:38:20.289Z,100.00
2022-08-03T03:40:49.011Z,100.00
2022-08-03T03:43:18.700Z,100.00
2022-08-03T03:45:47.177Z,100.00
2022-08-03T03:48:15.527Z,100.00
2022-08-03T03:50:45.229Z,100.00
2022-08-03T03:53:13.765Z,100.00
2022-08-03T03:56:01.627Z,100.00
2022-08-03T03:58:30.445Z,100.00
2022-08-03T04:00:59.125Z,100.00
2022-08-03T04:03:27.489Z,100.00
2022-08-03T04:06:11.063Z,100.00
2022-08-03T04:08:53.412Z,100.00
2022-08-03T04:11:29.346Z,100.00
2022-08-03T04:14:02.292Z,100.00
2022-08-03T04:16:33.031Z,100.00
2022-08-03T04:19:03.351Z,100.00
2022-08-03T04:21:33.229Z,100.00
2022-08-03T04:24:02.936Z,100.00
2022-08-03T04:26:33.262Z,100.00
2022-08-03T04:29:01.576Z,100.00
2022-08-03T04:31:30.743Z,100.00
2022-08-03T04:33:59.067Z,100.00
2022-08-03T04:36:27.899Z,100.00
2022-08-03T04:39:02.475Z,100.00
2022-08-03T04:41:30.799Z,100.00
2022-08-03T04:44:00.383Z,100.00
2022-08-03T04:46:29.863Z,100.00
2022-08-03T04:48:58.699Z,100.00
2022-08-03T04:51:26.923Z,100.00
2022-08-03T04:53:55.097Z,100.00
2022-08-03T04:56:25.050Z,100.00
2022-08-03T04:58:53.354Z,100.00
2022-08-03T05:01:22.765Z,100.00
2022-08-03T05:03:51.716Z,100.00
2022-08-03T05:06:19.992Z,100.00
2022-08-03T05:08:53.359Z,100.00
2022-08-03T05:11:22.031Z,100.00
2022-08-03T05:13:51.703Z,100.00
2022-08-03T05:16:20.006Z,100.00
2022-08-03T05:18:48.284Z,100.00
2022-08-03T05:21:50.312Z,100.00
2022-08-03T05:24:21.163Z,100.00
2022-08-03T05:26:49.927Z,100.00
2022-08-03T05:29:19.615Z,100.00
2022-08-03T05:31:47.894Z,100.00
2022-08-03T05:34:16.195Z,100.00
2022-08-03T05:36:44.486Z,100.00
2022-08-03T05:39:12.793Z,100.00
2022-08-03T05:41:41.089Z,100.00
2022-08-03T05:44:10.405Z,100.00
2022-08-03T05:46:40.370Z,100.00
2022-08-03T05:49:08.725Z,100.00
2022-08-03T05:51:37.726Z,100.00
2022-08-03T05:54:06.425Z,100.00
2022-08-03T05:56:34.739Z,100.00
2022-08-03T05:59:22.395Z,100.00
2022-08-03T06:01:53.261Z,100.00
2022-08-03T06:04:21.619Z,100.00
2022-08-03T06:06:50.854Z,100.00
2022-08-03T06:09:19.203Z,100.00
2022-08-03T06:11:47.495Z,100.00
2022-08-03T06:14:16.087Z,100.00
2022-08-03T06:16:46.717Z,100.00
2022-08-03T06:19:16.427Z,100.00
2022-08-03T06:21:44.730Z,100.00
2022-08-03T06:24:13.476Z,100.00
2022-08-03T06:26:43.704Z,100.00
2022-08-03T06:29:11.969Z,100.00
2022-08-03T06:31:40.391Z,100.00
2022-08-03T06:34:32.770Z,100.00
2022-08-03T06:37:02.123Z,100.00
2022-08-03T06:39:30.949Z,100.00
2022-08-03T06:41:59.445Z,100.00
2022-08-03T06:44:27.782Z,100.00
2022-08-03T06:46:56.560Z,100.00
2022-08-03T06:49:24.924Z,100.00
2022-08-03T06:52:03.131Z,100.00
2022-08-03T06:54:37.213Z,100.00
2022-08-03T06:57:06.268Z,100.00
2022-08-03T07:00:07.494Z,100.00
2022-08-03T07:02:22.824Z,100.00
2022-08-03T07:04:51.172Z,100.00
2022-08-03T07:07:20.781Z,100.00
2022-08-03T07:09:55.053Z,100.00
2022-08-03T07:12:27.605Z,100.00
2022-08-03T07:15:00.333Z,100.00
2022-08-03T07:17:30.437Z,100.00
2022-08-03T07:19:58.911Z,100.00
2022-08-03T07:22:27.242Z,100.00
2022-08-03T07:24:56.984Z,100.00
2022-08-03T07:27:27.150Z,100.00
2022-08-03T07:29:55.597Z,100.00
2022-08-03T07:32:24.006Z,100.00
2022-08-03T07:34:54.795Z,100.00
2022-08-03T07:37:26.721Z,100.00
2022-08-03T07:39:56.390Z,100.00
2022-08-03T07:42:24.712Z,100.00
2022-08-03T07:44:52.983Z,100.00
2022-08-03T07:47:22.700Z,100.00
2022-08-03T07:49:51.244Z,100.00
2022-08-03T07:52:33.328Z,100.00
2022-08-03T07:55:21.177Z,100.00
2022-08-03T07:57:49.606Z,100.00
2022-08-03T08:00:18.971Z,100.00
2022-08-03T08:02:47.363Z,100.00
2022-08-03T08:05:15.972Z,100.00
2022-08-03T08:07:44.574Z,100.00
2022-08-03T08:10:21.225Z,100.00
2022-08-03T08:13:08.012Z,100.00
2022-08-03T08:15:36.357Z,100.00
2022-08-03T08:18:11.189Z,100.00
2022-08-03T08:20:39.558Z,100.00
2022-08-03T08:23:37.879Z,100.00
2022-08-03T08:26:00.451Z,100.00
2022-08-03T08:28:30.435Z,100.00
2022-08-03T08:31:01.694Z,99.07
2022-08-03T08:34:02.197Z,98.33
2022-08-03T08:36:18.316Z,98.81
2022-08-03T08:38:46.645Z,98.82
2022-08-03T08:41:16.563Z,99.02
2022-08-03T08:43:45.631Z,98.53
2022-08-03T08:46:22.801Z,98.36
2022-08-03T08:48:55.331Z,96.16
2022-08-03T08:51:23.898Z,98.04
2022-08-03T08:54:12.320Z,97.23
2022-08-03T08:56:42.052Z,94.88
2022-08-03T08:59:10.395Z,95.58
2022-08-03T09:01:38.730Z,96.21
2022-08-03T09:04:09.762Z,96.09
2022-08-03T09:06:38.902Z,95.85
2022-08-03T09:09:09.456Z,93.80
2022-08-03T09:12:20.855Z,95.57
2022-08-03T09:15:07.305Z,95.45
2022-08-03T09:17:41.709Z,96.56
2022-08-03T09:20:10.623Z,96.06
2022-08-03T09:22:57.440Z,96.27
2022-08-03T09:25:30.985Z,96.03
2022-08-03T09:28:08.599Z,94.98
2022-08-03T09:30:36.961Z,95.52
2022-08-03T09:33:05.808Z,95.35
2022-08-03T09:38:24.386Z,94.81
2022-08-03T09:40:57.308Z,93.58
2022-08-03T09:43:29.092Z,94.67
2022-08-03T09:48:49.954Z,92.67
2022-08-03T09:52:11.037Z,93.02
2022-08-03T09:54:17.582Z,93.19
2022-08-03T09:56:49.045Z,90.80
2022-08-03T09:59:26.896Z,91.19
2022-08-03T10:01:55.846Z,89.98
2022-08-03T10:04:25.635Z,91.62
2022-08-03T10:07:05.526Z,92.66
2022-08-03T10:09:33.872Z,92.09
2022-08-03T10:12:09.811Z,91.30
2022-08-03T10:14:41.959Z,90.89
2022-08-03T10:17:11.124Z,89.20
2022-08-03T10:19:39.603Z,88.71
2022-08-03T10:22:17.869Z,88.64
2022-08-03T10:24:53.124Z,87.36
2022-08-03T10:27:23.489Z,86.94
2022-08-03T10:29:54.756Z,88.64
2022-08-03T10:32:27.918Z,89.69
2022-08-03T10:35:00.015Z,87.51
2022-08-03T10:37:29.765Z,86.20
2022-08-03T10:39:58.566Z,85.04
2022-08-03T10:42:27.422Z,82.64
2022-08-03T10:45:20.949Z,83.88
2022-08-03T10:47:49.510Z,84.51
2022-08-03T10:50:18.314Z,85.13
2022-08-03T10:52:57.774Z,84.87
2022-08-03T10:55:45.514Z,83.70
2022-08-03T10:58:14.176Z,81.88
2022-08-03T11:01:00.795Z,83.54
2022-08-03T11:03:29.140Z,82.42
2022-08-03T11:06:17.053Z,81.55
2022-08-03T11:08:46.249Z,75.30
2022-08-03T11:11:30.092Z,73.07
2022-08-03T11:13:59.509Z,76.86
2022-08-03T11:16:29.934Z,74.06
2022-08-03T11:18:59.457Z,73.27
2022-08-03T11:21:54.122Z,72.63
2022-08-03T11:24:54.416Z,71.34
2022-08-03T11:27:23.663Z,70.28
2022-08-03T11:29:58.122Z,68.67
2022-08-03T11:32:53.833Z,69.99
2022-08-03T11:35:23.754Z,69.19
2022-08-03T11:38:05.552Z,66.98
2022-08-03T11:40:36.256Z,70.71
2022-08-03T11:43:04.628Z,65.55
2022-08-03T11:45:32.976Z,65.53
2022-08-03T11:48:05.140Z,67.38
2022-08-03T11:50:38.030Z,66.34
2022-08-03T11:53:06.909Z,67.15
2022-08-03T11:55:35.487Z,67.20
2022-08-03T11:59:01.901Z,68.50
2022-08-03T12:00:52.471Z,66.60
2022-08-03T12:03:22.303Z,69.16
2022-08-03T12:05:52.682Z,69.03
2022-08-03T12:08:35.196Z,67.61
2022-08-03T12:11:05.824Z,67.47
2022-08-03T12:14:45.644Z,63.32
2022-08-03T12:16:45.024Z,67.19
2022-08-03T12:19:14.810Z,64.95
2022-08-03T12:21:57.417Z,66.60
2022-08-03T12:24:28.638Z,67.70
2022-08-03T12:27:00.086Z,64.04
2022-08-03T12:29:28.838Z,65.37
2022-08-03T12:31:57.698Z,64.41
2022-08-03T12:34:46.976Z,64.79
2022-08-03T12:37:21.763Z,61.18
2022-08-03T12:40:01.607Z,63.29
2022-08-03T12:42:53.241Z,65.03
2022-08-03T12:45:23.042Z,63.34
2022-08-03T12:47:52.715Z,64.08
2022-08-03T12:50:29.115Z,64.12
2022-08-03T12:52:57.683Z,63.54
2022-08-03T12:55:27.775Z,64.77
2022-08-03T12:57:56.335Z,59.63
2022-08-03T13:00:29.510Z,60.96
2022-08-03T13:03:39.663Z,60.75
2022-08-03T13:05:52.602Z,60.66
2022-08-03T13:08:21.326Z,61.64
2022-08-03T13:11:09.968Z,57.01
2022-08-03T13:13:41.623Z,62.49
2022-08-03T13:16:10.054Z,61.60
2022-08-03T13:18:38.852Z,61.19
2022-08-03T13:21:10.871Z,60.72
2022-08-03T13:26:25.410Z,60.76
2022-08-03T13:28:53.685Z,61.65
2022-08-03T13:31:22.001Z,59.09
2022-08-03T13:33:50.278Z,62.64
2022-08-03T13:36:20.561Z,61.50
2022-08-03T13:38:49.020Z,61.38
2022-08-03T13:41:17.934Z,62.89
2022-08-03T13:44:26.255Z,61.54
2022-08-03T13:46:47.628Z,60.61
2022-08-03T13:49:16.168Z,60.00
2022-08-03T13:51:45.819Z,60.32
2022-08-03T13:54:14.445Z,60.33
2022-08-03T13:56:46.456Z,60.99
2022-08-03T13:59:22.245Z,61.32
2022-08-03T14:02:00.580Z,61.56
2022-08-03T14:04:30.023Z,57.31
2022-08-03T14:06:59.739Z,58.50
2022-08-03T14:09:28.065Z,60.22
2022-08-03T14:12:04.132Z,56.66
2022-08-03T14:14:43.580Z,55.12
2022-08-03T14:17:12.210Z,57.07
2022-08-03T14:19:53.138Z,55.47
2022-08-03T14:22:23.729Z,54.96
2022-08-03T14:24:52.021Z,57.15
2022-08-03T14:27:23.903Z,51.59
2022-08-03T14:29:54.374Z,51.71
2022-08-03T14:32:24.558Z,52.23
2022-08-03T14:34:52.924Z,53.43
2022-08-03T14:37:42.451Z,50.38
2022-08-03T14:40:11.808Z,52.59
2022-08-03T14:42:40.123Z,48.89
2022-08-03T14:45:09.212Z,48.33
2022-08-03T14:50:30.060Z,48.81
2022-08-03T14:50:38.921Z,51.97
2022-08-03T14:53:11.645Z,51.86
2022-08-03T14:55:50.042Z,51.69
2022-08-03T14:58:20.980Z,52.25
2022-08-03T15:00:50.213Z,53.80
2022-08-03T15:03:20.586Z,50.49
2022-08-03T15:05:49.027Z,52.69
2022-08-03T15:08:18.726Z,52.84
2022-08-03T15:10:47.103Z,50.69
2022-08-03T15:13:17.607Z,50.80
2022-08-03T15:15:55.419Z,48.88
2022-08-03T15:18:28.511Z,49.45
2022-08-03T15:20:56.969Z,50.58
2022-08-03T15:26:30.524Z,48.07
2022-08-03T15:29:01.608Z,48.78
2022-08-03T15:31:29.927Z,49.96
2022-08-03T15:33:59.477Z,49.08
2022-08-03T15:36:28.118Z,49.74
2022-08-03T15:39:04.880Z,50.41
2022-08-03T15:41:45.143Z,48.78
2022-08-03T15:44:32.598Z,51.23
2022-08-03T15:47:00.991Z,49.67
2022-08-03T15:49:29.437Z,50.15
2022-08-03T15:51:57.809Z,46.68
2022-08-03T15:54:27.664Z,49.78
2022-08-03T15:56:55.990Z,49.11
2022-08-03T15:59:24.539Z,46.63
2022-08-03T16:01:54.367Z,46.50
2022-08-03T16:04:22.656Z,49.39
2022-08-03T16:07:12.584Z,50.48
2022-08-03T16:09:44.086Z,49.25
2022-08-03T16:12:15.772Z,49.02
2022-08-03T16:14:52.455Z,49.92
2022-08-03T16:17:22.049Z,47.95
2022-08-03T16:19:53.418Z,49.79
2022-08-03T16:22:23.883Z,48.55
2022-08-03T16:24:53.864Z,51.76
2022-08-03T16:28:00.489Z,49.03
2022-08-03T16:30:11.370Z,50.28
2022-08-03T16:32:40.117Z,51.05
2022-08-03T16:35:27.005Z,51.57
2022-08-03T16:37:57.028Z,51.06
2022-08-03T16:40:27.634Z,51.00
2022-08-03T16:42:56.064Z,51.59
2022-08-03T16:45:24.437Z,52.41
2022-08-03T16:48:01.433Z,51.49
2022-08-03T16:50:33.781Z,50.09
2022-08-03T16:53:03.714Z,50.26
2022-08-03T16:55:48.728Z,50.38
2022-08-03T16:58:34.267Z,51.29
2022-08-03T17:01:35.630Z,51.65
2022-08-03T17:04:06.255Z,51.14
2022-08-03T17:06:36.282Z,52.35
2022-08-03T17:09:08.981Z,52.00
2022-08-03T17:11:46.824Z,52.54
2022-08-03T17:14:17.124Z,54.09
2022-08-03T17:16:52.899Z,53.49
2022-08-03T17:19:23.777Z,54.08
2022-08-03T17:21:56.768Z,54.31
2022-08-03T17:24:30.220Z,56.19
2022-08-03T17:27:02.046Z,57.06
2022-08-03T17:29:30.749Z,58.99
2022-08-03T17:31:59.072Z,56.13
2022-08-03T17:34:27.398Z,57.59
2022-08-03T17:37:04.422Z,58.97
2022-08-03T17:40:05.536Z,58.94
2022-08-03T17:42:30.678Z,58.58
2022-08-03T17:45:02.296Z,59.86
2022-08-03T17:47:41.124Z,61.51
2022-08-03T17:50:24.832Z,61.06
2022-08-03T17:53:07.807Z,61.49
2022-08-03T17:55:56.878Z,63.24
2022-08-03T17:58:35.711Z,64.19
2022-08-03T18:02:00.202Z,64.86
2022-08-03T18:04:11.010Z,65.79
2022-08-03T18:06:56.112Z,65.32
2022-08-03T18:10:03.484Z,66.67
2022-08-03T18:12:15.815Z,65.90
2022-08-03T18:14:57.844Z,68.83
2022-08-03T18:17:54.669Z,68.05
2022-08-03T18:20:32.695Z,68.53
2022-08-03T18:23:04.849Z,72.07
2022-08-03T18:25:44.928Z,71.61
2022-08-03T18:28:14.615Z,71.20
2022-08-03T18:30:54.775Z,71.09
2022-08-03T18:34:19.659Z,70.84
2022-08-03T18:36:17.424Z,70.93
2022-08-03T18:38:47.690Z,72.39
2022-08-03T18:41:31.776Z,72.81
2022-08-03T18:44:08.242Z,73.26
2022-08-03T18:46:48.147Z,75.26
2022-08-03T18:49:24.169Z,75.37
2022-08-03T18:52:01.543Z,79.63
2022-08-03T18:57:30.311Z,79.57
2022-08-03T19:00:05.714Z,78.75
2022-08-03T19:02:42.385Z,80.68
2022-08-03T19:05:19.698Z,80.64
2022-08-03T19:07:58.257Z,81.71
2022-08-03T19:10:31.144Z,82.56
2022-08-03T19:13:02.674Z,86.07
2022-08-03T19:15:36.359Z,85.03
2022-08-03T19:18:10.726Z,86.26
2022-08-03T19:20:39.674Z,87.25
2022-08-03T19:23:11.251Z,88.77
2022-08-03T19:25:42.099Z,89.55
2022-08-03T19:28:11.317Z,90.29
2022-08-03T19:30:46.457Z,90.72
2022-08-03T19:33:23.550Z,91.66
2022-08-03T19:35:56.989Z,91.00
2022-08-03T19:38:28.546Z,92.72
2022-08-03T19:40:59.734Z,92.09
2022-08-03T19:43:53.837Z,92.46
2022-08-03T19:46:30.704Z,92.76
2022-08-03T19:49:03.007Z,93.08
2022-08-03T19:52:01.923Z,93.36
2022-08-03T19:54:29.993Z,94.06
2022-08-03T19:57:01.759Z,94.98
2022-08-03T19:59:30.454Z,95.48
2022-08-03T20:01:59.229Z,96.61
2022-08-03T20:04:28.912Z,96.82
2022-08-03T20:06:59.346Z,97.45
2022-08-03T20:09:30.421Z,98.14
2022-08-03T20:11:59.133Z,98.67
2022-08-03T20:14:27.707Z,97.95
2022-08-03T20:16:57.601Z,98.25
2022-08-03T20:19:32.721Z,98.27
2022-08-03T20:22:04.805Z,98.73
2022-08-03T20:24:42.943Z,97.43
2022-08-03T20:27:19.999Z,97.46
2022-08-03T20:30:06.854Z,97.75
2022-08-03T20:32:36.562Z,98.28
2022-08-03T20:35:05.183Z,98.62
2022-08-03T20:37:39.765Z,98.97
2022-08-03T20:40:10.592Z,99.02
2022-08-03T20:42:38.911Z,98.63
2022-08-03T20:45:14.052Z,99.98
2022-08-03T20:47:56.495Z,98.83
2022-08-03T20:50:24.816Z,99.83
2022-08-03T20:52:54.943Z,99.24
2022-08-03T20:55:48.219Z,98.64
2022-08-03T20:58:11.838Z,99.28
2022-08-03T21:00:42.366Z,99.29
2022-08-03T21:03:11.546Z,99.33
2022-08-03T21:05:48.413Z,99.12
2022-08-03T21:08:22.445Z,99.83
2022-08-03T21:10:50.820Z,99.50
2022-08-03T21:13:00.958Z,77.51
2022-08-03T21:13:24.698Z,99.90
2022-08-03T21:16:06.262Z,100.00
2022-08-03T21:18:44.895Z,100.00
2022-08-03T21:21:15.679Z,100.00
2022-08-03T21:23:48.074Z,100.00
2022-08-03T21:26:18.293Z,100.00
2022-08-03T21:28:47.278Z,100.00
2022-08-03T21:31:24.635Z,100.00
2022-08-03T21:33:55.128Z,100.00
2022-08-03T21:36:23.419Z,100.00
2022-08-03T21:38:56.325Z,100.00
2022-08-03T21:41:27.096Z,100.00
2022-08-03T21:43:55.397Z,100.00
2022-08-03T21:46:23.793Z,100.00
2022-08-03T21:48:55.562Z,100.00
2022-08-03T21:51:25.378Z,100.00
2022-08-03T21:54:03.627Z,100.00
2022-08-03T21:56:36.291Z,100.00
2022-08-03T21:59:06.227Z,100.00
2022-08-03T22:01:35.411Z,100.00
2022-08-03T22:04:05.636Z,100.00
2022-08-03T22:06:35.165Z,100.00
2022-08-03T22:09:05.535Z,100.00
2022-08-03T22:11:34.565Z,100.00
2022-08-03T22:14:02.853Z,100.00
2022-08-03T22:16:31.383Z,100.00
2022-08-03T22:18:59.676Z,100.00
2022-08-03T22:21:36.214Z,100.00
2022-08-03T22:24:06.806Z,100.00
2022-08-03T22:26:35.747Z,100.00
2022-08-03T22:29:06.279Z,100.00
2022-08-03T22:31:58.394Z,100.00
2022-08-03T22:34:26.835Z,100.00
2022-08-03T22:37:00.359Z,100.00
2022-08-03T22:39:30.517Z,100.00
2022-08-03T22:41:59.207Z,100.00
2022-08-03T22:44:27.722Z,100.00
2022-08-03T22:46:56.056Z,100.00
2022-08-03T22:49:24.441Z,100.00
2022-08-03T22:51:53.333Z,100.00
2022-08-03T22:54:21.644Z,100.00
2022-08-03T22:56:51.394Z,100.00
2022-08-03T22:59:41.437Z,100.00
2022-08-03T23:02:20.074Z,100.00
2022-08-03T23:04:51.228Z,100.00
2022-08-03T23:07:22.182Z,100.00
2022-08-03T23:09:50.781Z,100.00
2022-08-03T23:12:21.033Z,100.00
2022-08-03T23:14:53.478Z,100.00
2022-08-03T23:17:22.816Z,100.00
2022-08-03T23:19:52.209Z,100.00
2022-08-03T23:22:30.082Z,100.00
2022-08-03T23:24:59.778Z,100.00
2022-08-03T23:27:29.782Z,100.00
2022-08-03T23:29:58.268Z,100.00
2022-08-03T23:32:26.777Z,100.00
2022-08-03T23:35:10.573Z,100.00
2022-08-03T23:38:04.657Z,100.00
2022-08-03T23:40:29.642Z,100.00
2022-08-03T23:42:59.814Z,100.00
2022-08-03T23:45:28.836Z,100.00
2022-08-03T23:47:57.117Z,100.00
2022-08-03T23:50:25.701Z,100.00
2022-08-03T23:52:58.247Z,100.00
2022-08-03T23:55:35.871Z,100.00
2022-08-03T23:58:10.971Z,100.00
